KAR770 UWUU-UWKD
Flight info
| Callsign | KAR770 |
|---|---|
| Flight time | 0h 50m |
| Altitude | 36000 |
| Route | TILMU3M TILMU N985 ORTIM ORTIM1R |
| Aircraft | E190/M-SDE3GILORVW/S |
Departure
| Time | 2026-04-27 14:54 |
|---|---|
| Airport | Ufa International Airport (UWUU) |
Arrival
| Time | 2026-04-27 15:44 |
|---|---|
| Airport | Kazan International Airport (UWKD) |
| Time | Latitude | Longitude | Altitude | Speed | Heading |
|---|---|---|---|---|---|
| 2026-04-27 14:22 | 54.56255 | 55.88547 | 384 ft | 0 kts | 60° |
| 2026-04-27 14:43 | 54.56255 | 55.88546 | 384 ft | 1 kts | 60° |
| 2026-04-27 14:44 | 54.56248 | 55.88524 | 384 ft | 2 kts | 60° |
| 2026-04-27 14:44 | 54.56240 | 55.88502 | 384 ft | 2 kts | 59° |
| 2026-04-27 14:44 | 54.56233 | 55.88480 | 384 ft | 2 kts | 60° |
| 2026-04-27 14:44 | 54.56226 | 55.88458 | 383 ft | 2 kts | 48° |
| 2026-04-27 14:45 | 54.56213 | 55.88447 | 383 ft | 2 kts | 2° |
| 2026-04-27 14:45 | 54.56200 | 55.88452 | 384 ft | 0 kts | 328° |
| 2026-04-27 14:45 | 54.56198 | 55.88454 | 384 ft | 0 kts | 327° |
| 2026-04-27 14:47 | 54.56207 | 55.88445 | 383 ft | 2 kts | 330° |
| 2026-04-27 14:47 | 54.56237 | 55.88415 | 383 ft | 7 kts | 331° |
| 2026-04-27 14:48 | 54.56297 | 55.88359 | 382 ft | 11 kts | 330° |
| 2026-04-27 14:48 | 54.56418 | 55.88164 | 379 ft | 13 kts | 240° |
| 2026-04-27 14:48 | 54.56373 | 55.88025 | 379 ft | 13 kts | 240° |
| 2026-04-27 14:49 | 54.56330 | 55.87888 | 380 ft | 12 kts | 240° |
| 2026-04-27 14:49 | 54.56287 | 55.87763 | 383 ft | 11 kts | 240° |
| 2026-04-27 14:49 | 54.56249 | 55.87648 | 387 ft | 10 kts | 241° |
| 2026-04-27 14:49 | 54.56207 | 55.87520 | 392 ft | 14 kts | 240° |
| 2026-04-27 14:50 | 54.56145 | 55.87334 | 396 ft | 20 kts | 238° |
| 2026-04-27 14:50 | 54.56067 | 55.87093 | 404 ft | 23 kts | 240° |
| 2026-04-27 14:50 | 54.55987 | 55.86853 | 410 ft | 23 kts | 239° |
| 2026-04-27 14:50 | 54.55904 | 55.86598 | 411 ft | 24 kts | 242° |
| 2026-04-27 14:51 | 54.55850 | 55.86353 | 412 ft | 19 kts | 309° |
| 2026-04-27 14:51 | 54.55976 | 55.86230 | 408 ft | 23 kts | 330° |
| 2026-04-27 14:51 | 54.56141 | 55.86072 | 403 ft | 30 kts | 330° |
| 2026-04-27 14:51 | 54.56271 | 55.85945 | 399 ft | 33 kts | 330° |
| 2026-04-27 14:52 | 54.56557 | 55.85670 | 390 ft | 34 kts | 330° |
| 2026-04-27 14:52 | 54.56759 | 55.85473 | 384 ft | 34 kts | 330° |
| 2026-04-27 14:52 | 54.56972 | 55.85270 | 378 ft | 35 kts | 329° |
| 2026-04-27 14:52 | 54.57167 | 55.85098 | 371 ft | 27 kts | 341° |
| 2026-04-27 14:53 | 54.57306 | 55.85019 | 366 ft | 18 kts | 294° |
| 2026-04-27 14:53 | 54.57262 | 55.84988 | 368 ft | 9 kts | 151° |
| 2026-04-27 14:53 | 54.57106 | 55.85136 | 373 ft | 58 kts | 150° |
| 2026-04-27 14:53 | 54.56547 | 55.85681 | 390 ft | 122 kts | 152° |
| 2026-04-27 14:54 | 54.55720 | 55.86462 | 811 ft | 138 kts | 151° |
| 2026-04-27 14:54 | 54.54929 | 55.87302 | 1556 ft | 138 kts | 149° |
| 2026-04-27 14:54 | 54.54124 | 55.88198 | 2360 ft | 143 kts | 151° |
| 2026-04-27 14:54 | 54.53302 | 55.89181 | 2888 ft | 153 kts | 150° |
| 2026-04-27 14:55 | 54.52452 | 55.90503 | 3056 ft | 187 kts | 131° |
| 2026-04-27 14:55 | 54.52182 | 55.92890 | 3077 ft | 229 kts | 83° |
| 2026-04-27 14:55 | 54.53107 | 55.95221 | 3190 ft | 254 kts | 39° |
| 2026-04-27 14:55 | 54.54546 | 55.96930 | 3286 ft | 251 kts | 47° |
| 2026-04-27 14:56 | 54.55838 | 55.99113 | 3471 ft | 269 kts | 51° |
| 2026-04-27 14:56 | 54.57164 | 56.01426 | 4009 ft | 268 kts | 52° |
| 2026-04-27 14:56 | 54.58372 | 56.03778 | 4623 ft | 262 kts | 57° |
| 2026-04-27 14:56 | 54.59538 | 56.06161 | 5264 ft | 258 kts | 56° |
| 2026-04-27 14:57 | 54.60980 | 56.08016 | 5832 ft | 274 kts | 18° |
| 2026-04-27 14:57 | 54.62910 | 56.08181 | 6499 ft | 287 kts | 340° |
| 2026-04-27 14:57 | 54.64703 | 56.06640 | 7200 ft | 295 kts | 321° |
| 2026-04-27 14:57 | 54.66491 | 56.04769 | 7843 ft | 305 kts | 323° |
| 2026-04-27 14:58 | 54.68348 | 56.02919 | 8476 ft | 306 kts | 324° |
| 2026-04-27 14:58 | 54.70199 | 56.01112 | 9094 ft | 307 kts | 325° |
| 2026-04-27 14:58 | 54.72038 | 55.99329 | 9693 ft | 309 kts | 325° |
| 2026-04-27 14:58 | 54.73918 | 55.97511 | 10334 ft | 313 kts | 325° |
| 2026-04-27 14:59 | 54.75831 | 55.95662 | 11004 ft | 319 kts | 325° |
| 2026-04-27 14:59 | 54.77605 | 55.93325 | 11655 ft | 317 kts | 301° |
| 2026-04-27 14:59 | 54.78487 | 55.89973 | 12353 ft | 307 kts | 272° |
| 2026-04-27 14:59 | 54.78679 | 55.86342 | 13025 ft | 306 kts | 267° |
| 2026-04-27 15:00 | 54.78807 | 55.82629 | 13657 ft | 307 kts | 267° |
| 2026-04-27 15:00 | 54.78918 | 55.78970 | 14269 ft | 309 kts | 266° |
| 2026-04-27 15:00 | 54.79024 | 55.75236 | 14904 ft | 311 kts | 266° |
| 2026-04-27 15:00 | 54.79126 | 55.71505 | 15541 ft | 313 kts | 266° |
| 2026-04-27 15:01 | 54.79226 | 55.67754 | 16185 ft | 313 kts | 265° |
| 2026-04-27 15:01 | 54.79325 | 55.63990 | 16835 ft | 315 kts | 265° |
| 2026-04-27 15:01 | 54.79424 | 55.60176 | 17483 ft | 318 kts | 264° |
| 2026-04-27 15:01 | 54.79521 | 55.56387 | 18120 ft | 319 kts | 264° |
| 2026-04-27 15:02 | 54.79618 | 55.52498 | 18798 ft | 324 kts | 264° |
| 2026-04-27 15:02 | 54.79715 | 55.48627 | 19457 ft | 327 kts | 264° |
| 2026-04-27 15:02 | 54.79812 | 55.44665 | 20135 ft | 332 kts | 264° |
| 2026-04-27 15:02 | 54.79909 | 55.40667 | 20819 ft | 336 kts | 264° |
| 2026-04-27 15:03 | 54.80006 | 55.36639 | 21505 ft | 339 kts | 264° |
| 2026-04-27 15:03 | 54.80103 | 55.32555 | 22211 ft | 342 kts | 263° |
| 2026-04-27 15:03 | 54.80198 | 55.28464 | 22921 ft | 345 kts | 263° |
| 2026-04-27 15:03 | 54.80293 | 55.24350 | 23634 ft | 347 kts | 263° |
| 2026-04-27 15:04 | 54.80388 | 55.20151 | 24366 ft | 349 kts | 263° |
| 2026-04-27 15:04 | 54.80481 | 55.15957 | 25096 ft | 351 kts | 262° |
| 2026-04-27 15:04 | 54.80573 | 55.11771 | 25823 ft | 352 kts | 263° |
| 2026-04-27 15:04 | 54.80666 | 55.07515 | 26553 ft | 352 kts | 263° |
| 2026-04-27 15:05 | 54.80754 | 55.03319 | 27277 ft | 352 kts | 263° |
| 2026-04-27 15:05 | 54.80843 | 54.99095 | 27999 ft | 351 kts | 262° |
| 2026-04-27 15:05 | 54.80928 | 54.94851 | 28392 ft | 360 kts | 262° |
| 2026-04-27 15:05 | 54.81014 | 54.90478 | 28550 ft | 374 kts | 263° |
| 2026-04-27 15:06 | 54.81105 | 54.85930 | 28859 ft | 384 kts | 263° |
| 2026-04-27 15:06 | 54.81197 | 54.81264 | 29348 ft | 388 kts | 263° |
| 2026-04-27 15:06 | 54.81287 | 54.76653 | 29899 ft | 384 kts | 263° |
| 2026-04-27 15:06 | 54.81374 | 54.72042 | 30159 ft | 381 kts | 262° |
| 2026-04-27 15:07 | 54.81538 | 54.62872 | 30219 ft | 386 kts | 263° |
| 2026-04-27 15:07 | 54.81700 | 54.53462 | 30445 ft | 395 kts | 263° |
| 2026-04-27 15:08 | 54.81781 | 54.48701 | 30818 ft | 397 kts | 263° |
| 2026-04-27 15:08 | 54.81860 | 54.43966 | 31186 ft | 394 kts | 262° |
| 2026-04-27 15:08 | 54.81934 | 54.39217 | 31535 ft | 400 kts | 262° |
| 2026-04-27 15:08 | 54.82010 | 54.34358 | 32079 ft | 400 kts | 262° |
| 2026-04-27 15:09 | 54.82084 | 54.29568 | 32745 ft | 397 kts | 262° |
| 2026-04-27 15:09 | 54.82155 | 54.24825 | 33413 ft | 393 kts | 262° |
| 2026-04-27 15:09 | 54.82225 | 54.20164 | 34061 ft | 390 kts | 263° |
| 2026-04-27 15:09 | 54.82596 | 54.15488 | 34574 ft | 401 kts | 273° |
| 2026-04-27 15:10 | 54.83350 | 54.10798 | 35023 ft | 403 kts | 275° |
| 2026-04-27 15:10 | 54.84085 | 54.06174 | 35371 ft | 404 kts | 275° |
| 2026-04-27 15:10 | 54.84817 | 54.01463 | 35666 ft | 407 kts | 275° |
| 2026-04-27 15:10 | 54.85553 | 53.96677 | 35745 ft | 415 kts | 275° |
| 2026-04-27 15:11 | 54.87066 | 53.86792 | 35758 ft | 434 kts | 275° |
| 2026-04-27 15:11 | 54.88603 | 53.76692 | 35731 ft | 437 kts | 275° |
| 2026-04-27 15:12 | 54.90132 | 53.66576 | 35734 ft | 437 kts | 275° |
| 2026-04-27 15:12 | 54.91663 | 53.56415 | 35733 ft | 435 kts | 275° |
| 2026-04-27 15:13 | 54.93189 | 53.46236 | 35715 ft | 435 kts | 275° |
| 2026-04-27 15:13 | 54.94707 | 53.36044 | 35733 ft | 439 kts | 275° |
| 2026-04-27 15:14 | 54.96214 | 53.25864 | 35740 ft | 434 kts | 274° |
| 2026-04-27 15:14 | 54.97697 | 53.15725 | 35754 ft | 437 kts | 274° |
| 2026-04-27 15:15 | 54.99181 | 53.05519 | 35951 ft | 438 kts | 274° |
| 2026-04-27 15:15 | 54.99919 | 53.00431 | 35752 ft | 434 kts | 274° |
| 2026-04-27 15:15 | 55.00657 | 52.95307 | 35746 ft | 432 kts | 274° |
| 2026-04-27 15:16 | 55.02108 | 52.85192 | 35753 ft | 435 kts | 274° |
| 2026-04-27 15:16 | 55.03565 | 52.74972 | 35837 ft | 436 kts | 274° |
| 2026-04-27 15:17 | 55.04298 | 52.69812 | 35620 ft | 439 kts | 274° |
| 2026-04-27 15:17 | 55.05020 | 52.64704 | 35994 ft | 445 kts | 274° |
| 2026-04-27 15:17 | 55.05767 | 52.59439 | 35516 ft | 438 kts | 274° |
| 2026-04-27 15:17 | 55.06489 | 52.54300 | 35726 ft | 438 kts | 274° |
| 2026-04-27 15:18 | 55.07944 | 52.43902 | 35747 ft | 444 kts | 274° |
| 2026-04-27 15:18 | 55.09398 | 52.33443 | 35751 ft | 445 kts | 274° |
| 2026-04-27 15:19 | 55.10113 | 52.28301 | 35730 ft | 430 kts | 273° |
| 2026-04-27 15:19 | 55.10803 | 52.23294 | 35697 ft | 422 kts | 273° |
| 2026-04-27 15:19 | 55.12178 | 52.13253 | 35708 ft | 426 kts | 273° |
| 2026-04-27 15:20 | 55.12859 | 52.08261 | 35331 ft | 428 kts | 273° |
| 2026-04-27 15:20 | 55.13542 | 52.03242 | 34903 ft | 429 kts | 273° |
| 2026-04-27 15:20 | 55.14230 | 51.98180 | 34423 ft | 427 kts | 272° |
| 2026-04-27 15:20 | 55.14912 | 51.93139 | 33932 ft | 423 kts | 272° |
| 2026-04-27 15:21 | 55.15577 | 51.88195 | 33453 ft | 422 kts | 272° |
| 2026-04-27 15:21 | 55.16247 | 51.83190 | 32995 ft | 424 kts | 272° |
| 2026-04-27 15:21 | 55.16918 | 51.78169 | 32528 ft | 424 kts | 272° |
| 2026-04-27 15:21 | 55.17580 | 51.73211 | 32054 ft | 424 kts | 271° |
| 2026-04-27 15:22 | 55.18241 | 51.68234 | 31588 ft | 422 kts | 271° |
| 2026-04-27 15:22 | 55.18897 | 51.63290 | 31121 ft | 420 kts | 271° |
| 2026-04-27 15:22 | 55.19554 | 51.58309 | 30631 ft | 421 kts | 271° |
| 2026-04-27 15:22 | 55.20204 | 51.53364 | 30156 ft | 416 kts | 271° |
| 2026-04-27 15:23 | 55.20853 | 51.48411 | 29677 ft | 417 kts | 270° |
| 2026-04-27 15:23 | 55.21492 | 51.43523 | 29238 ft | 413 kts | 270° |
| 2026-04-27 15:23 | 55.22126 | 51.38650 | 28779 ft | 413 kts | 270° |
| 2026-04-27 15:23 | 55.22759 | 51.33768 | 28321 ft | 408 kts | 269° |
| 2026-04-27 15:24 | 55.23387 | 51.28916 | 27865 ft | 406 kts | 269° |
| 2026-04-27 15:24 | 55.24000 | 51.24162 | 27434 ft | 401 kts | 269° |
| 2026-04-27 15:24 | 55.24605 | 51.19445 | 26982 ft | 401 kts | 269° |
| 2026-04-27 15:24 | 55.25207 | 51.14743 | 26541 ft | 399 kts | 268° |
| 2026-04-27 15:25 | 55.25812 | 51.10003 | 26100 ft | 396 kts | 268° |
| 2026-04-27 15:25 | 55.26405 | 51.05344 | 25672 ft | 394 kts | 268° |
| 2026-04-27 15:25 | 55.26994 | 51.00637 | 25239 ft | 391 kts | 267° |
| 2026-04-27 15:25 | 55.27544 | 50.95974 | 24796 ft | 389 kts | 267° |
| 2026-04-27 15:26 | 55.28085 | 50.91338 | 24358 ft | 393 kts | 267° |
| 2026-04-27 15:26 | 55.28630 | 50.86694 | 23928 ft | 392 kts | 266° |
| 2026-04-27 15:26 | 55.29166 | 50.82109 | 23506 ft | 385 kts | 266° |
| 2026-04-27 15:26 | 55.29703 | 50.77476 | 23070 ft | 387 kts | 267° |
| 2026-04-27 15:27 | 55.30235 | 50.72881 | 22645 ft | 388 kts | 267° |
| 2026-04-27 15:27 | 55.30765 | 50.68304 | 22211 ft | 383 kts | 267° |
| 2026-04-27 15:27 | 55.31294 | 50.63703 | 21792 ft | 381 kts | 267° |
| 2026-04-27 15:27 | 55.31813 | 50.59163 | 21373 ft | 384 kts | 267° |
| 2026-04-27 15:28 | 55.32336 | 50.54577 | 20956 ft | 384 kts | 267° |
| 2026-04-27 15:28 | 55.32851 | 50.50066 | 20533 ft | 380 kts | 267° |
| 2026-04-27 15:28 | 55.33366 | 50.45525 | 20114 ft | 379 kts | 267° |
| 2026-04-27 15:28 | 55.33875 | 50.41019 | 19701 ft | 377 kts | 268° |
| 2026-04-27 15:29 | 55.34379 | 50.36534 | 19277 ft | 378 kts | 268° |
| 2026-04-27 15:29 | 55.34886 | 50.32033 | 18863 ft | 375 kts | 267° |
| 2026-04-27 15:29 | 55.35386 | 50.27543 | 18447 ft | 375 kts | 267° |
| 2026-04-27 15:29 | 55.35884 | 50.23087 | 18028 ft | 372 kts | 268° |
| 2026-04-27 15:30 | 55.36377 | 50.18660 | 17622 ft | 365 kts | 268° |
| 2026-04-27 15:30 | 55.36856 | 50.14317 | 17214 ft | 363 kts | 268° |
| 2026-04-27 15:30 | 55.37335 | 50.09978 | 16809 ft | 359 kts | 268° |
| 2026-04-27 15:30 | 55.37804 | 50.05702 | 16417 ft | 356 kts | 268° |
| 2026-04-27 15:31 | 55.38270 | 50.01455 | 16022 ft | 352 kts | 268° |
| 2026-04-27 15:31 | 55.38730 | 49.97256 | 15647 ft | 351 kts | 270° |
| 2026-04-27 15:31 | 55.39346 | 49.93156 | 15311 ft | 352 kts | 274° |
| 2026-04-27 15:31 | 55.39984 | 49.89071 | 14927 ft | 345 kts | 275° |
| 2026-04-27 15:32 | 55.40614 | 49.85010 | 14545 ft | 341 kts | 275° |
| 2026-04-27 15:32 | 55.41231 | 49.81007 | 14171 ft | 337 kts | 275° |
| 2026-04-27 15:32 | 55.41840 | 49.77049 | 13801 ft | 332 kts | 275° |
| 2026-04-27 15:32 | 55.42435 | 49.73165 | 13441 ft | 329 kts | 276° |
| 2026-04-27 15:33 | 55.43021 | 49.69340 | 13066 ft | 327 kts | 277° |
| 2026-04-27 15:33 | 55.43612 | 49.65466 | 12706 ft | 323 kts | 277° |
| 2026-04-27 15:33 | 55.44189 | 49.61679 | 12346 ft | 321 kts | 277° |
| 2026-04-27 15:33 | 55.44764 | 49.57893 | 11996 ft | 319 kts | 277° |
| 2026-04-27 15:34 | 55.45331 | 49.54150 | 11641 ft | 317 kts | 278° |
| 2026-04-27 15:34 | 55.45888 | 49.50474 | 11286 ft | 313 kts | 278° |
| 2026-04-27 15:34 | 55.46444 | 49.46794 | 10942 ft | 304 kts | 278° |
| 2026-04-27 15:34 | 55.46981 | 49.43230 | 10605 ft | 296 kts | 278° |
| 2026-04-27 15:35 | 55.47493 | 49.39831 | 10288 ft | 287 kts | 278° |
| 2026-04-27 15:35 | 55.47998 | 49.36455 | 9972 ft | 281 kts | 278° |
| 2026-04-27 15:35 | 55.48490 | 49.33173 | 9668 ft | 274 kts | 277° |
| 2026-04-27 15:35 | 55.48967 | 49.29978 | 9370 ft | 267 kts | 277° |
| 2026-04-27 15:36 | 55.49434 | 49.26839 | 9082 ft | 266 kts | 277° |
| 2026-04-27 15:36 | 55.49903 | 49.23682 | 8789 ft | 266 kts | 277° |
| 2026-04-27 15:36 | 55.50632 | 49.20656 | 8485 ft | 278 kts | 298° |
| 2026-04-27 15:36 | 55.51860 | 49.18016 | 7981 ft | 283 kts | 302° |
| 2026-04-27 15:37 | 55.53130 | 49.15362 | 7378 ft | 283 kts | 302° |
| 2026-04-27 15:37 | 55.54383 | 49.12741 | 6746 ft | 277 kts | 303° |
| 2026-04-27 15:37 | 55.55596 | 49.10202 | 6179 ft | 268 kts | 302° |
| 2026-04-27 15:37 | 55.56793 | 49.07686 | 5619 ft | 265 kts | 302° |
| 2026-04-27 15:38 | 55.57973 | 49.05203 | 5064 ft | 267 kts | 303° |
| 2026-04-27 15:38 | 55.59152 | 49.02724 | 4473 ft | 263 kts | 303° |
| 2026-04-27 15:38 | 55.60324 | 49.00256 | 3918 ft | 262 kts | 303° |
| 2026-04-27 15:38 | 55.61792 | 48.98340 | 3370 ft | 277 kts | 336° |
| 2026-04-27 15:39 | 55.63720 | 48.98125 | 2846 ft | 284 kts | 11° |
| 2026-04-27 15:39 | 55.65647 | 48.99081 | 2476 ft | 284 kts | 14° |
| 2026-04-27 15:39 | 55.67529 | 49.00006 | 2141 ft | 283 kts | 14° |
| 2026-04-27 15:39 | 55.69172 | 49.01659 | 2054 ft | 259 kts | 52° |
| 2026-04-27 15:40 | 55.69846 | 49.04326 | 2094 ft | 224 kts | 95° |
| 2026-04-27 15:40 | 55.69476 | 49.06670 | 2156 ft | 181 kts | 138° |
| 2026-04-27 15:40 | 55.68582 | 49.08082 | 2185 ft | 171 kts | 144° |
| 2026-04-27 15:40 | 55.67822 | 49.09578 | 2161 ft | 157 kts | 139° |
| 2026-04-27 15:41 | 55.67171 | 49.11086 | 2108 ft | 153 kts | 135° |
| 2026-04-27 15:41 | 55.66542 | 49.12644 | 2094 ft | 156 kts | 134° |
| 2026-04-27 15:41 | 55.65937 | 49.14194 | 1969 ft | 147 kts | 135° |
| 2026-04-27 15:41 | 55.65382 | 49.15626 | 1753 ft | 136 kts | 135° |
| 2026-04-27 15:42 | 55.64875 | 49.16940 | 1552 ft | 123 kts | 135° |
| 2026-04-27 15:42 | 55.64399 | 49.18167 | 1391 ft | 120 kts | 136° |
| 2026-04-27 15:42 | 55.63921 | 49.19392 | 1240 ft | 122 kts | 134° |
| 2026-04-27 15:42 | 55.63450 | 49.20665 | 1023 ft | 123 kts | 130° |
| 2026-04-27 15:43 | 55.62973 | 49.21911 | 880 ft | 122 kts | 134° |
| 2026-04-27 15:43 | 55.62494 | 49.23122 | 723 ft | 121 kts | 134° |
| 2026-04-27 15:43 | 55.62002 | 49.24367 | 561 ft | 123 kts | 130° |
| 2026-04-27 15:43 | 55.61524 | 49.25593 | 425 ft | 116 kts | 129° |
| 2026-04-27 15:44 | 55.61134 | 49.26568 | 422 ft | 75 kts | 122° |
| 2026-04-27 15:44 | 55.60911 | 49.27138 | 422 ft | 47 kts | 126° |
| 2026-04-27 15:44 | 55.60726 | 49.27613 | 422 ft | 45 kts | 126° |
| 2026-04-27 15:44 | 55.60551 | 49.28067 | 422 ft | 43 kts | 124° |
| 2026-04-27 15:45 | 55.60401 | 49.28463 | 422 ft | 26 kts | 121° |
| 2026-04-27 15:45 | 55.60421 | 49.28605 | 422 ft | 7 kts | 36° |
| 2026-04-27 15:45 | 55.60470 | 49.28676 | 422 ft | 10 kts | 33° |
| 2026-04-27 15:45 | 55.60539 | 49.28730 | 422 ft | 10 kts | 348° |
| 2026-04-27 15:46 | 55.60590 | 49.28624 | 422 ft | 12 kts | 304° |
| 2026-04-27 15:46 | 55.60643 | 49.28498 | 422 ft | 7 kts | 332° |
| 2026-04-27 15:46 | 55.60651 | 49.28463 | 422 ft | 3 kts | 165° |
| 2026-04-27 15:46 | 55.60632 | 49.28520 | 422 ft | 7 kts | 122° |
| 2026-04-27 15:47 | 55.60597 | 49.28619 | 422 ft | 12 kts | 107° |
| 2026-04-27 15:47 | 55.60584 | 49.28793 | 422 ft | 15 kts | 94° |
| 2026-04-27 15:47 | 55.60579 | 49.28988 | 422 ft | 16 kts | 96° |
| 2026-04-27 15:47 | 55.60611 | 49.29176 | 422 ft | 16 kts | 43° |
| 2026-04-27 15:48 | 55.60705 | 49.29297 | 422 ft | 13 kts | 34° |
| 2026-04-27 15:48 | 55.60728 | 49.29391 | 422 ft | 8 kts | 119° |
| 2026-04-27 15:48 | 55.60700 | 49.29470 | 422 ft | 6 kts | 115° |
| 2026-04-27 15:49 | 55.60728 | 49.29538 | 422 ft | 0 kts | 35° |